Time;durP1;ratioP1;P1;durP2;ratioP2;P2;SDS_P1;SDS_P2;PMS_P1;PMS_P2;Temp;Humidity;BMP_temperature;BMP_pressure;BME280_temperature;BME280_humidity;BME280_pressure;Samples;Min_cycle;Max_cycle;Signal;HPM_P1;HPM_P2
2023/07/11 00:01:15;;;;;;;;;;;;;;;26.99;44.31;100398.06;5462034;32;35395;-77
2023/07/11 00:04:17;;;;;;;;;;;;;;;27.84;42.99;100392.38;5451021;32;35470;-73
2023/07/11 00:07:20;;;;;;;;;;;;;;;28.45;41.08;100398.97;5432628;32;34413;-74
2023/07/11 00:10:22;;;;;;;;;;;;;;;27.49;42.29;100391.69;5462372;32;34190;-79
2023/07/11 00:13:25;;;;;;;;;;;;;;;27.26;43.54;100393.41;5451265;32;34123;-73
2023/07/11 00:16:27;;;;;;;;;;;;;;;27.46;43.08;100383.13;5447100;32;35724;-78
2023/07/11 00:19:31;;;;;;;;;;;;;;;28.06;41.52;100394.34;5465756;32;35360;-80
2023/07/11 00:22:33;;;;;;;;;;;;;;;27.15;43.39;100391.88;5466374;32;34402;-79
2023/07/11 00:25:35;;;;;;;;;;;;;;;26.54;46.05;100403.00;5468960;32;35223;-73
2023/07/11 00:28:37;;;;;;;;;;;;;;;26.32;47.28;100396.28;5464893;32;34248;-79
2023/07/11 00:31:39;;;;;;;;;;;;;;;26.94;45.82;100400.41;5452306;32;34941;-73
2023/07/11 00:34:41;;;;;;;;;;;;;;;26.41;47.38;100398.91;5468242;32;34229;-73
2023/07/11 00:37:43;;;;;;;;;;;;;;;26.48;47.22;100396.41;5451824;32;34613;-79
2023/07/11 00:40:46;;;;;;;;;;;;;;;26.60;47.14;100384.31;5471688;32;34534;-79
2023/07/11 00:43:48;;;;;;;;;;;;;;;26.36;47.28;100386.88;5465405;32;34870;-78
2023/07/11 00:46:50;;;;;;;;;;;;;;;26.97;45.90;100375.78;5465098;32;34270;-73
2023/07/11 00:49:55;;;;;;;;;;;;;;;26.49;47.15;100376.53;5448996;32;35426;-73
2023/07/11 00:52:57;;;;;;;;;;;;;;;26.32;47.74;100386.34;5435719;32;34277;-80
2023/07/11 00:56:00;;;;;;;;;;;;;;;26.20;47.90;100380.41;5468300;32;34417;-75
2023/07/11 00:59:02;;;;;;;;;;;;;;;26.14;48.54;100380.19;5449790;32;34841;-77
2023/07/11 01:02:24;;;;;;;;;;;;;;;26.69;46.96;100377.94;5441417;32;34418;-73
2023/07/11 01:05:26;;;;;;;;;;;;;;;26.12;47.89;100383.06;5463766;32;34158;-73
2023/07/11 01:08:28;;;;;;;;;;;;;;;25.82;48.78;100368.22;5468172;32;34352;-79
2023/07/11 01:11:31;;;;;;;;;;;;;;;26.35;47.22;100361.78;5453975;32;34362;-74
2023/07/11 01:14:34;;;;;;;;;;;;;;;26.71;46.23;100372.37;5434952;32;34255;-79
2023/07/11 01:17:37;;;;;;;;;;;;;;;25.70;46.36;100372.19;5453779;32;34234;-80
2023/07/11 01:20:39;;;;;;;;;;;;;;;25.80;48.05;100372.09;5470354;32;34068;-74
2023/07/11 01:23:41;;;;;;;;;;;;;;;26.18;46.79;100374.34;5467986;32;34487;-80
2023/07/11 01:26:43;;;;;;;;;;;;;;;26.29;46.42;100367.00;5436124;32;35641;-80
2023/07/11 01:29:46;;;;;;;;;;;;;;;26.28;46.68;100368.84;5452297;32;34374;-80
2023/07/11 01:32:48;;;;;;;;;;;;;;;26.11;46.29;100370.59;5452029;32;35514;-79
2023/07/11 01:35:52;;;;;;;;;;;;;;;26.13;46.05;100365.03;5449570;32;34330;-81
2023/07/11 01:38:53;;;;;;;;;;;;;;;25.83;46.84;100361.88;5453110;32;34179;-82
2023/07/11 01:41:55;;;;;;;;;;;;;;;26.22;45.94;100358.72;5466334;32;35439;-75
2023/07/11 01:44:57;;;;;;;;;;;;;;;26.10;46.38;100362.69;5453683;32;34338;-75
2023/07/11 01:47:59;;;;;;;;;;;;;;;26.28;46.07;100351.84;5461135;32;34206;-81
2023/07/11 01:51:02;;;;;;;;;;;;;;;26.48;45.41;100347.06;5461875;32;35477;-74
2023/07/11 01:54:04;;;;;;;;;;;;;;;25.95;46.83;100350.81;5453212;32;34337;-74
2023/07/11 01:57:07;;;;;;;;;;;;;;;25.96;46.97;100350.66;5463931;32;35429;-79
2023/07/11 02:00:09;;;;;;;;;;;;;;;27.10;44.35;100344.81;5467485;32;34323;-79
2023/07/11 02:03:12;;;;;;;;;;;;;;;26.98;44.42;100334.34;5434988;32;34427;-75
2023/07/11 02:06:14;;;;;;;;;;;;;;;26.94;44.59;100330.28;5455954;32;34567;-73
2023/07/11 02:09:16;;;;;;;;;;;;;;;26.03;46.91;100348.19;5467401;32;34312;-81
2023/07/11 02:12:18;;;;;;;;;;;;;;;26.49;46.05;100343.34;5435136;32;35489;-80
2023/07/11 02:15:20;;;;;;;;;;;;;;;26.97;44.86;100343.44;5466875;32;35367;-73
2023/07/11 02:18:22;;;;;;;;;;;;;;;25.97;47.26;100338.03;5463927;32;35870;-78
2023/07/11 02:21:25;;;;;;;;;;;;;;;26.03;47.09;100349.03;5450097;32;35536;-73
2023/07/11 02:24:27;;;;;;;;;;;;;;;26.57;46.10;100338.81;5453774;32;34157;-74
2023/07/11 02:27:29;;;;;;;;;;;;;;;25.87;47.72;100343.53;5466787;32;34281;-80
2023/07/11 02:30:31;;;;;;;;;;;;;;;26.75;45.60;100335.16;5436544;32;34555;-73
2023/07/11 02:33:33;;;;;;;;;;;;;;;26.51;46.23;100336.78;5448328;32;35470;-79
2023/07/11 02:36:35;;;;;;;;;;;;;;;25.69;48.78;100334.63;5468597;32;34256;-79
2023/07/11 02:39:37;;;;;;;;;;;;;;;26.17;47.57;100334.94;5463429;32;35793;-80
2023/07/11 02:42:39;;;;;;;;;;;;;;;25.85;48.64;100335.63;5455684;32;35720;-74
2023/07/11 02:45:41;;;;;;;;;;;;;;;25.80;48.58;100339.78;5447010;32;34234;-79
2023/07/11 02:48:43;;;;;;;;;;;;;;;25.79;48.64;100333.56;5467439;32;35520;-78
2023/07/11 02:51:45;;;;;;;;;;;;;;;26.48;46.78;100331.72;5448422;32;35077;-80
2023/07/11 02:54:47;;;;;;;;;;;;;;;26.10;47.85;100341.97;5462862;32;34462;-80
2023/07/11 02:57:49;;;;;;;;;;;;;;;26.08;48.02;100338.63;5454228;32;34037;-73
2023/07/11 03:00:53;;;;;;;;;;;;;;;26.28;47.43;100333.81;5462609;32;34173;-78
2023/07/11 03:03:55;;;;;;;;;;;;;;;26.23;47.43;100332.59;5466647;32;35643;-74
2023/07/11 03:06:59;;;;;;;;;;;;;;;26.52;46.98;100329.53;5466400;32;35322;-78
2023/07/11 03:10:02;;;;;;;;;;;;;;;25.88;48.92;100339.84;5468041;32;34424;-79
2023/07/11 03:13:04;;;;;;;;;;;;;;;26.34;48.01;100329.59;5434859;32;34343;-79
2023/07/11 03:16:06;;;;;;;;;;;;;;;25.98;49.00;100337.88;5463910;32;34278;-73
2023/07/11 03:19:08;;;;;;;;;;;;;;;26.30;48.38;100331.78;5466352;32;34929;-78
2023/07/11 03:22:10;;;;;;;;;;;;;;;25.95;49.40;100340.03;5461838;32;34794;-79
2023/07/11 03:25:12;;;;;;;;;;;;;;;26.08;49.23;100341.31;5468449;32;34394;-73
2023/07/11 03:28:14;;;;;;;;;;;;;;;26.56;48.01;100341.69;5465238;32;34400;-73
2023/07/11 03:31:16;;;;;;;;;;;;;;;26.93;47.13;100333.16;5468295;32;34346;-79
2023/07/11 03:34:19;;;;;;;;;;;;;;;26.06;49.30;100337.06;5452786;32;35789;-73
2023/07/11 03:37:21;;;;;;;;;;;;;;;26.56;48.12;100334.44;5462830;32;35403;-73
2023/07/11 03:40:24;;;;;;;;;;;;;;;26.25;49.02;100336.81;5466455;32;36043;-73
2023/07/11 03:43:25;;;;;;;;;;;;;;;25.82;50.12;100354.78;5462843;32;35373;-74
2023/07/11 03:46:27;;;;;;;;;;;;;;;26.58;48.06;100358.50;5463725;32;34368;-73
2023/07/11 03:49:29;;;;;;;;;;;;;;;26.07;49.45;100366.53;5460819;32;34933;-73
2023/07/11 03:52:32;;;;;;;;;;;;;;;26.53;48.21;100356.31;5451178;32;35054;-78
2023/07/11 03:55:33;;;;;;;;;;;;;;;25.55;50.75;100368.34;5450480;32;34455;-73
2023/07/11 03:58:35;;;;;;;;;;;;;;;25.84;50.26;100377.00;5451555;32;35479;-79
2023/07/11 04:01:38;;;;;;;;;;;;;;;25.84;50.52;100370.78;5450987;32;34257;-79
2023/07/11 04:04:40;;;;;;;;;;;;;;;25.65;51.06;100374.50;5434703;32;35408;-81
2023/07/11 04:07:42;;;;;;;;;;;;;;;25.75;50.67;100372.56;5465233;32;35704;-73
2023/07/11 04:10:44;;;;;;;;;;;;;;;25.65;51.20;100377.19;5466475;32;35385;-79
2023/07/11 04:13:46;;;;;;;;;;;;;;;25.82;50.58;100376.31;5441728;32;34631;-73
2023/07/11 04:16:48;;;;;;;;;;;;;;;26.05;50.04;100378.47;5462112;32;34282;-81
2023/07/11 04:19:51;;;;;;;;;;;;;;;25.62;51.20;100380.19;5452529;32;33872;-81
2023/07/11 04:22:52;;;;;;;;;;;;;;;26.04;50.15;100377.62;5450950;32;34167;-74
2023/07/11 04:25:54;;;;;;;;;;;;;;;26.55;48.83;100373.19;5461624;32;34362;-74
2023/07/11 04:28:56;;;;;;;;;;;;;;;26.06;50.13;100381.00;5454227;32;34367;-73
2023/07/11 04:31:58;;;;;;;;;;;;;;;26.20;49.78;100374.16;5464675;32;34344;-79
2023/07/11 04:35:01;;;;;;;;;;;;;;;25.61;51.70;100381.19;5448852;32;36496;-79
2023/07/11 04:38:03;;;;;;;;;;;;;;;25.76;51.11;100387.75;5464469;32;35460;-79
2023/07/11 04:41:05;;;;;;;;;;;;;;;26.16;50.20;100378.22;5460830;32;33419;-73
2023/07/11 04:44:07;;;;;;;;;;;;;;;26.15;50.20;100379.22;5464768;32;35680;-78
2023/07/11 04:47:09;;;;;;;;;;;;;;;26.68;48.92;100380.81;5457655;32;34087;-73
2023/07/11 04:50:11;;;;;;;;;;;;;;;27.29;47.04;100379.56;5435185;32;34817;-80
2023/07/11 04:53:13;;;;;;;;;;;;;;;26.64;48.75;100377.56;5446428;32;34212;-73
2023/07/11 04:56:15;;;;;;;;;;;;;;;27.11;47.53;100376.19;5460467;32;35384;-80
2023/07/11 04:59:17;;;;;;;;;;;;;;;27.24;47.06;100373.81;5449701;32;34357;-79
2023/07/11 05:02:19;;;;;;;;;;;;;;;27.62;45.68;100379.56;5445578;32;34172;-73
2023/07/11 05:05:22;;;;;;;;;;;;;;;27.20;47.00;100381.44;5447679;32;35485;-79
2023/07/11 05:08:24;;;;;;;;;;;;;;;28.12;44.89;100387.41;5459232;32;35387;-73
2023/07/11 05:11:26;;;;;;;;;;;;;;;27.82;44.99;100382.75;5469300;32;35524;-73
2023/07/11 05:14:28;;;;;;;;;;;;;;;26.94;47.18;100380.69;5466017;32;35407;-74
2023/07/11 05:17:30;;;;;;;;;;;;;;;27.54;45.86;100383.09;5466740;32;34248;-80
2023/07/11 05:20:32;;;;;;;;;;;;;;;27.75;45.30;100386.13;5466000;32;34280;-75
2023/07/11 05:23:34;;;;;;;;;;;;;;;28.07;44.65;100390.63;5464625;32;33502;-80
2023/07/11 05:26:37;;;;;;;;;;;;;;;27.48;45.75;100389.19;5451393;32;33523;-74
2023/07/11 05:29:39;;;;;;;;;;;;;;;28.16;44.17;100386.06;5463706;32;34863;-74
2023/07/11 05:32:41;;;;;;;;;;;;;;;27.77;44.66;100384.12;5457362;32;34154;-74
2023/07/11 05:35:57;;;;;;;;;;;;;;;29.16;41.64;100378.12;5460230;32;34265;-80
2023/07/11 05:39:10;;;;;;;;;;;;;;;28.12;43.64;100381.19;5420296;32;34380;-74
2023/07/11 05:42:12;;;;;;;;;;;;;;;28.53;42.62;100388.16;5430808;32;34742;-74
2023/07/11 05:45:14;;;;;;;;;;;;;;;28.80;41.52;100377.88;5406199;32;34867;-76
2023/07/11 05:48:16;;;;;;;;;;;;;;;27.82;43.64;100397.09;5428250;32;34052;-72
2023/07/11 05:51:21;;;;;;;;;;;;;;;28.68;41.81;100385.53;5420570;32;35370;-69
2023/07/11 05:54:23;;;;;;;;;;;;;;;28.81;41.15;100393.06;5427348;32;35387;-75
2023/07/11 05:57:25;;;;;;;;;;;;;;;29.28;40.39;100392.09;5409805;32;35933;-76
2023/07/11 06:00:27;;;;;;;;;;;;;;;28.59;41.65;100395.53;5420949;32;34074;-76
2023/07/11 06:03:29;;;;;;;;;;;;;;;29.82;39.00;100402.81;5442898;32;34880;-76
2023/07/11 06:06:33;;;;;;;;;;;;;;;29.36;39.63;100397.44;5453337;32;34114;-68
2023/07/11 06:09:35;;;;;;;;;;;;;;;28.95;40.78;100411.25;5456825;32;35346;-74
2023/07/11 06:12:37;;;;;;;;;;;;;;;28.79;41.19;100406.78;5445156;32;34212;-71
2023/07/11 06:15:39;;;;;;;;;;;;;;;30.22;38.46;100408.88;5442464;32;34181;-85
2023/07/11 06:18:41;;;;;;;;;;;;;;;30.06;38.64;100412.56;5436827;32;34146;-86
2023/07/11 06:21:44;;;;;;;;;;;;;;;29.45;39.98;100411.75;5437019;32;34191;-74
2023/07/11 06:24:47;;;;;;;;;;;;;;;30.69;37.11;100417.44;5449170;32;35080;-76
2023/07/11 06:27:49;;;;;;;;;;;;;;;30.59;37.24;100419.59;5435585;32;33408;-72
2023/07/11 06:30:54;;;;;;;;;;;;;;;31.27;36.33;100412.06;5459900;32;34327;-77
2023/07/11 06:33:56;;;;;;;;;;;;;;;31.22;35.84;100409.87;5461321;32;35621;-79
2023/07/11 06:36:58;;;;;;;;;;;;;;;31.86;34.96;100408.19;5428527;32;34238;-77
2023/07/11 06:40:00;;;;;;;;;;;;;;;30.14;38.16;100407.06;5439235;32;35374;-76
2023/07/11 06:43:02;;;;;;;;;;;;;;;31.75;35.39;100402.25;5456212;32;35743;-77
2023/07/11 06:46:04;;;;;;;;;;;;;;;32.10;34.78;100404.19;5455826;32;34324;-68
2023/07/11 06:49:06;;;;;;;;;;;;;;;31.77;35.12;100405.59;5456212;32;35514;-78
2023/07/11 06:52:08;;;;;;;;;;;;;;;32.01;34.43;100407.06;5460187;32;35424;-76
2023/07/11 06:55:10;;;;;;;;;;;;;;;30.70;36.69;100419.13;5467904;32;34202;-88
2023/07/11 06:58:12;;;;;;;;;;;;;;;31.72;35.35;100410.78;5452283;32;35620;-80
2023/07/11 07:01:14;;;;;;;;;;;;;;;31.11;35.98;100409.56;5448995;32;35624;-75
2023/07/11 07:04:36;;;;;;;;;;;;;;;31.82;34.71;100399.63;5446649;32;37490;-74
2023/07/11 07:07:38;;;;;;;;;;;;;;;31.11;36.02;100402.28;5429183;32;823873;-79
2023/07/11 07:10:44;;;;;;;;;;;;;;;32.13;34.45;100406.50;5446108;32;34872;-72
2023/07/11 07:13:46;;;;;;;;;;;;;;;31.14;35.80;100410.03;5456545;32;34322;-71
2023/07/11 07:17:05;;;;;;;;;;;;;;;31.39;35.56;100410.50;5459446;32;34364;-76
2023/07/11 07:20:09;;;;;;;;;;;;;;;31.11;36.07;100412.25;5457603;32;33086;-72
2023/07/11 07:23:11;;;;;;;;;;;;;;;33.03;33.09;100408.19;5443857;32;34345;-81
2023/07/11 07:26:13;;;;;;;;;;;;;;;33.11;32.58;100414.28;5433373;32;34284;-80
2023/07/11 07:29:15;;;;;;;;;;;;;;;32.92;32.68;100417.81;5450937;32;35374;-79
2023/07/11 07:32:17;;;;;;;;;;;;;;;32.90;32.07;100419.03;5457752;32;34242;-74
2023/07/11 07:35:20;;;;;;;;;;;;;;;32.05;34.05;100415.66;5459091;32;34640;-70
2023/07/11 07:38:22;;;;;;;;;;;;;;;33.61;31.24;100414.78;5454586;32;33259;-77
2023/07/11 07:41:24;;;;;;;;;;;;;;;32.33;33.66;100418.34;5461665;32;35924;-74
2023/07/11 07:44:26;;;;;;;;;;;;;;;32.52;32.82;100425.75;5450190;32;34183;-71
2023/07/11 07:47:28;;;;;;;;;;;;;;;33.95;30.34;100421.09;5453604;32;34709;-71
2023/07/11 07:50:30;;;;;;;;;;;;;;;34.04;29.75;100417.06;5454716;32;34210;-74
2023/07/11 07:53:32;;;;;;;;;;;;;;;32.67;31.92;100405.75;5452921;32;36423;-84
2023/07/11 07:56:35;;;;;;;;;;;;;;;33.09;31.15;100410.09;5461436;32;34268;-72
2023/07/11 07:59:37;;;;;;;;;;;;;;;33.06;31.24;100415.94;5461310;32;33329;-76
2023/07/11 08:02:42;;;;;;;;;;;;;;;34.41;28.90;100415.53;5456129;32;35452;-81
2023/07/11 08:05:44;;;;;;;;;;;;;;;34.63;28.80;100415.25;5462096;32;35217;-91
2023/07/11 08:08:47;;;;;;;;;;;;;;;34.39;29.42;100412.19;5444849;32;35362;-87
2023/07/11 08:11:49;;;;;;;;;;;;;;;33.90;29.04;100412.66;5458711;32;34330;-69
2023/07/11 08:14:51;;;;;;;;;;;;;;;34.22;28.22;100413.69;5457427;32;34183;-79
2023/07/11 08:17:53;;;;;;;;;;;;;;;34.22;28.55;100411.78;5457465;32;34270;-90
2023/07/11 08:20:55;;;;;;;;;;;;;;;34.85;28.21;100415.78;5450119;32;35579;-77
2023/07/11 08:23:57;;;;;;;;;;;;;;;34.25;29.48;100420.59;5450772;32;34239;-75
2023/07/11 08:26:59;;;;;;;;;;;;;;;33.54;30.16;100421.28;5462701;32;35550;-77
2023/07/11 08:30:02;;;;;;;;;;;;;;;32.45;32.32;100418.62;5436795;32;34527;-77
2023/07/11 08:33:05;;;;;;;;;;;;;;;31.75;33.47;100423.13;5459203;32;34354;-82
2023/07/11 08:36:07;;;;;;;;;;;;;;;31.85;33.76;100420.09;5446501;32;34895;-73
2023/07/11 08:39:09;;;;;;;;;;;;;;;31.61;32.84;100424.06;5450719;32;35840;-77
2023/07/11 08:42:14;;;;;;;;;;;;;;;32.67;31.33;100422.09;5434643;32;34235;-75
2023/07/11 08:45:19;;;;;;;;;;;;;;;32.31;31.67;100429.41;5440099;32;35904;-73
2023/07/11 08:48:42;;;;;;;;;;;;;;;32.07;31.80;100432.59;5452425;32;35442;-82
2023/07/11 08:51:50;;;;;;;;;;;;;;;32.36;31.32;100436.16;5449558;32;33691;-77
2023/07/11 08:55:11;;;;;;;;;;;;;;;31.89;31.42;100426.84;5462453;32;33675;-79
2023/07/11 08:58:19;;;;;;;;;;;;;;;33.13;28.97;100424.97;5460610;32;34263;-84
2023/07/11 09:01:36;;;;;;;;;;;;;;;34.15;27.96;100431.97;5456529;32;35022;-84
2023/07/11 09:04:46;;;;;;;;;;;;;;;34.72;27.00;100438.53;5448028;32;34324;-72
2023/07/11 09:07:52;;;;;;;;;;;;;;;33.82;27.79;100432.81;5458060;32;35018;-70
2023/07/11 09:10:58;;;;;;;;;;;;;;;33.42;28.65;100431.94;5428309;32;35831;-73
2023/07/11 09:14:12;;;;;;;;;;;;;;;34.48;27.10;100437.34;5460400;32;37091;-76
2023/07/11 09:17:14;;;;;;;;;;;;;;;35.14;25.91;100441.69;5453178;32;34421;-84
2023/07/11 09:20:22;;;;;;;;;;;;;;;35.04;26.27;100435.84;5465846;32;34789;-82
2023/07/11 09:23:43;;;;;;;;;;;;;;;35.58;25.21;100431.75;5456813;32;34180;-85
2023/07/11 09:26:47;;;;;;;;;;;;;;;36.02;24.55;100426.13;5459469;32;34308;-74
2023/07/11 09:29:49;;;;;;;;;;;;;;;35.60;25.10;100435.09;5466298;32;35341;-80
2023/07/11 09:32:52;;;;;;;;;;;;;;;35.57;25.45;100427.34;5463024;32;33925;-81
2023/07/11 09:35:54;;;;;;;;;;;;;;;37.15;23.54;100425.59;5470025;32;35283;-83
2023/07/11 09:38:58;;;;;;;;;;;;;;;36.66;24.63;100428.59;5432483;32;36210;-75
2023/07/11 09:42:05;;;;;;;;;;;;;;;36.60;23.94;100428.44;5459903;32;34494;-74
2023/07/11 09:45:11;;;;;;;;;;;;;;;36.51;24.31;100424.31;5446031;32;34193;-75
2023/07/11 09:48:15;;;;;;;;;;;;;;;35.86;25.14;100418.44;5456937;32;34284;-76
2023/07/11 09:51:17;;;;;;;;;;;;;;;35.08;25.99;100420.72;5450606;32;34903;-71
2023/07/11 09:54:23;;;;;;;;;;;;;;;35.10;26.64;100430.37;5448093;32;34383;-76
2023/07/11 09:57:25;;;;;;;;;;;;;;;35.81;25.23;100413.66;5457851;32;36884;-79
2023/07/11 10:00:28;;;;;;;;;;;;;;;36.89;23.98;100409.53;5447623;32;35611;-77
2023/07/11 10:03:35;;;;;;;;;;;;;;;37.80;22.81;100399.28;5435935;32;34244;-74
2023/07/11 10:06:41;;;;;;;;;;;;;;;36.28;24.33;100405.00;5457982;32;36066;-72
2023/07/11 10:09:47;;;;;;;;;;;;;;;34.99;26.34;100418.25;5463328;32;34184;-75
2023/07/11 10:12:50;;;;;;;;;;;;;;;36.33;24.82;100407.91;5466310;32;34311;-71
2023/07/11 10:15:57;;;;;;;;;;;;;;;37.48;23.49;100404.25;5462217;32;36308;-82
2023/07/11 10:18:59;;;;;;;;;;;;;;;36.37;25.47;100411.84;5446572;32;35612;-74
2023/07/11 10:22:02;;;;;;;;;;;;;;;37.11;24.85;100409.87;5462299;32;34224;-77
2023/07/11 10:25:19;;;;;;;;;;;;;;;38.01;23.76;100409.69;5461815;32;35700;-79
2023/07/11 10:28:21;;;;;;;;;;;;;;;37.54;24.09;100404.13;5450091;32;34613;-75
2023/07/11 10:31:25;;;;;;;;;;;;;;;37.36;24.77;100401.50;5457216;32;34464;-82
2023/07/11 10:34:33;;;;;;;;;;;;;;;36.40;25.77;100403.22;5458093;32;33183;-79
2023/07/11 10:37:41;;;;;;;;;;;;;;;36.38;25.76;100405.28;5455984;32;36362;-83
2023/07/11 10:40:43;;;;;;;;;;;;;;;37.97;23.99;100407.66;5456022;32;33678;-77
2023/07/11 10:43:46;;;;;;;;;;;;;;;36.53;25.23;100403.06;5437789;32;34100;-87
2023/07/11 10:46:49;;;;;;;;;;;;;;;37.09;24.53;100398.28;5434451;32;33325;-86
2023/07/11 10:49:51;;;;;;;;;;;;;;;38.05;23.30;100399.87;5435662;32;34507;-76
2023/07/11 10:52:53;;;;;;;;;;;;;;;36.89;24.56;100401.31;5457603;32;34299;-74
2023/07/11 10:56:00;;;;;;;;;;;;;;;35.04;27.44;100401.22;5464110;32;33748;-74
2023/07/11 10:59:02;;;;;;;;;;;;;;;35.85;25.99;100394.06;5457939;32;35299;-74
2023/07/11 11:02:11;;;;;;;;;;;;;;;35.61;25.97;100393.03;5443187;32;35468;-75
2023/07/11 11:05:19;;;;;;;;;;;;;;;35.93;25.40;100399.28;5462741;32;34271;-76
2023/07/11 11:08:40;;;;;;;;;;;;;;;36.56;24.30;100391.62;5445672;32;34604;-74
2023/07/11 11:11:54;;;;;;;;;;;;;;;36.12;24.57;100392.75;5451372;32;35409;-80
2023/07/11 11:15:01;;;;;;;;;;;;;;;35.43;25.62;100381.00;5449848;32;34290;-75
2023/07/11 11:18:10;;;;;;;;;;;;;;;35.42;25.22;100379.31;5462421;32;34843;-74
2023/07/11 11:21:22;;;;;;;;;;;;;;;34.92;25.93;100390.16;5445025;32;35298;-73
2023/07/11 11:24:53;;;;;;;;;;;;;;;34.70;26.08;100383.28;5436280;32;34038;-71
2023/07/11 11:28:11;;;;;;;;;;;;;;;36.50;23.85;100375.28;5462068;32;34372;-76
2023/07/11 11:31:24;;;;;;;;;;;;;;;37.25;23.16;100369.41;5457415;32;34581;-74
2023/07/11 11:34:27;;;;;;;;;;;;;;;36.28;24.28;100369.44;5445733;32;34092;-78
2023/07/11 11:37:38;;;;;;;;;;;;;;;37.90;22.35;100363.88;5453894;32;34313;-79
2023/07/11 11:40:43;;;;;;;;;;;;;;;36.84;23.57;100371.03;5449907;32;34159;-82
2023/07/11 11:43:46;;;;;;;;;;;;;;;36.14;24.14;100359.72;5443320;32;34434;-82
2023/07/11 11:46:51;;;;;;;;;;;;;;;35.92;25.06;100348.38;5429659;32;34121;-81
2023/07/11 11:49:55;;;;;;;;;;;;;;;36.38;24.61;100350.56;5426013;32;35430;-85
2023/07/11 11:53:18;;;;;;;;;;;;;;;37.49;23.31;100343.72;5458527;32;35319;-81
2023/07/11 11:56:22;;;;;;;;;;;;;;;37.92;22.96;100348.00;5427066;32;35579;-76
2023/07/11 11:59:27;;;;;;;;;;;;;;;37.62;23.52;100338.00;5443091;32;35757;-84
2023/07/11 12:02:33;;;;;;;;;;;;;;;36.19;25.45;100348.91;5440239;32;33906;-81
2023/07/11 12:05:35;;;;;;;;;;;;;;;37.54;24.19;100345.72;5453465;32;34295;-74
2023/07/11 12:09:40;;;;;;;;;;;;;;;35.09;27.33;100348.66;5449531;32;33621;-82
2023/07/11 12:12:46;;;;;;;;;;;;;;;36.98;24.95;100334.22;5445214;32;34961;-88
2023/07/11 12:16:06;;;;;;;;;;;;;;;35.30;26.91;100333.78;5467031;32;34921;-73
2023/07/11 12:19:27;;;;;;;;;;;;;;;34.99;27.43;100343.69;5462188;32;35857;-76
2023/07/11 12:22:58;;;;;;;;;;;;;;;34.92;27.00;100338.28;5460720;32;34201;-72
2023/07/11 12:26:45;;;;;;;;;;;;;;;34.36;28.18;100347.12;5460120;32;34576;-72
2023/07/11 12:30:08;;;;;;;;;;;;;;;34.44;27.91;100355.09;5458297;32;34214;-75
2023/07/11 12:33:38;;;;;;;;;;;;;;;34.11;28.10;100333.38;5444026;32;33628;-76
2023/07/11 12:37:06;;;;;;;;;;;;;;;34.02;28.13;100337.38;5466774;32;36022;-76
2023/07/11 12:40:36;;;;;;;;;;;;;;;34.09;28.05;100345.56;5468493;32;35842;-70
2023/07/11 12:44:03;;;;;;;;;;;;;;;33.99;27.87;100332.34;5467541;32;34708;-73
2023/07/11 12:47:10;;;;;;;;;;;;;;;34.56;26.84;100348.94;5450383;32;35401;-69
2023/07/11 12:50:19;;;;;;;;;;;;;;;33.17;28.49;100328.22;5448623;32;35456;-72
2023/07/11 12:53:21;;;;;;;;;;;;;;;33.39;28.04;100321.53;5459642;32;34965;-76
2023/07/11 12:56:23;;;;;;;;;;;;;;;33.88;27.29;100328.37;5468503;32;35523;-76
2023/07/11 12:59:27;;;;;;;;;;;;;;;33.77;27.52;100337.22;5466431;32;34736;-83
2023/07/11 13:02:38;;;;;;;;;;;;;;;33.66;27.37;100332.41;5461418;32;34362;-75
2023/07/11 13:06:08;;;;;;;;;;;;;;;;;;;;;
2023/07/11 13:09:26;;;;;;;;;;;;;;;33.62;27.78;100329.28;5462253;32;34127;-73
2023/07/11 13:12:32;;;;;;;;;;;;;;;34.27;26.71;100329.34;5453781;32;34167;-74
2023/07/11 13:15:34;;;;;;;;;;;;;;;33.99;26.95;100326.91;5466949;32;34407;-81
2023/07/11 13:18:43;;;;;;;;;;;;;;;33.20;27.86;100324.22;5466639;32;35319;-74
2023/07/11 13:21:45;;;;;;;;;;;;;;;33.00;28.51;100313.31;5434590;32;34236;-83
2023/07/11 13:24:47;;;;;;;;;;;;;;;33.83;27.12;100314.56;5457485;32;34446;-75
2023/07/11 13:27:50;;;;;;;;;;;;;;;33.70;27.75;100320.03;5466447;32;35262;-80
2023/07/11 13:31:02;;;;;;;;;;;;;;;33.96;27.89;100310.16;5437777;32;34442;-71
2023/07/11 13:34:08;;;;;;;;;;;;;;;33.54;26.98;100301.41;5467715;32;35210;-70
2023/07/11 13:37:10;;;;;;;;;;;;;;;33.21;27.92;100312.28;5459927;32;36852;-74
2023/07/11 13:40:37;;;;;;;;;;;;;;;33.66;27.19;100307.87;5437497;32;34270;-79
2023/07/11 13:44:19;;;;;;;;;;;;;;;33.62;27.30;100306.59;5453815;32;36755;-75
2023/07/11 13:47:49;;;;;;;;;;;;;;;33.99;26.65;100302.38;5457114;32;34345;-76
2023/07/11 13:51:15;;;;;;;;;;;;;;;33.93;26.87;100304.06;5457365;32;34867;-73
2023/07/11 13:54:21;;;;;;;;;;;;;;;34.26;26.20;100307.72;5467752;32;34390;-75
2023/07/11 13:57:23;;;;;;;;;;;;;;;32.93;27.57;100293.44;5465513;32;35621;-76
2023/07/11 14:00:30;;;;;;;;;;;;;;;33.63;26.17;100290.06;5433135;32;32286;-87
2023/07/11 14:03:49;;;;;;;;;;;;;;;33.15;26.96;100303.06;5446737;32;36046;-84
2023/07/11 14:07:16;;;;;;;;;;;;;;;33.81;26.20;100297.56;5452928;32;36021;-73
2023/07/11 14:10:22;;;;;;;;;;;;;;;33.51;26.89;100297.22;5437213;32;36311;-74
2023/07/11 14:13:25;;;;;;;;;;;;;;;33.97;26.27;100296.28;5440816;32;35062;-84
2023/07/11 14:16:27;;;;;;;;;;;;;;;34.00;24.63;100297.75;5432366;32;34964;-83
2023/07/11 14:19:34;;;;;;;;;;;;;;;33.82;24.89;100291.06;5457252;32;34995;-73
2023/07/11 14:22:38;;;;;;;;;;;;;;;33.34;26.06;100291.31;5437016;32;35446;-74
2023/07/11 14:25:41;;;;;;;;;;;;;;;34.27;25.28;100296.59;5456360;32;34489;-82
2023/07/11 14:28:43;;;;;;;;;;;;;;;34.27;25.32;100293.88;5443771;32;34740;-83
2023/07/11 14:31:48;;;;;;;;;;;;;;;33.89;25.71;100286.44;5450345;32;35626;-82
2023/07/11 14:34:50;;;;;;;;;;;;;;;34.06;25.63;100289.53;5445390;32;36567;-83
2023/07/11 14:37:52;;;;;;;;;;;;;;;34.77;24.65;100285.00;5463738;32;35323;-74
2023/07/11 14:40:54;;;;;;;;;;;;;;;34.17;25.55;100290.75;5430852;32;34667;-81
2023/07/11 14:43:56;;;;;;;;;;;;;;;33.77;26.02;100282.69;5451165;32;35451;-81
2023/07/11 14:46:58;;;;;;;;;;;;;;;34.13;25.67;100286.78;5432440;32;35386;-74
2023/07/11 14:50:03;;;;;;;;;;;;;;;33.81;26.08;100289.38;5448598;32;34119;-73
2023/07/11 14:53:05;;;;;;;;;;;;;;;33.69;26.32;100282.94;5466161;32;35570;-83
2023/07/11 14:56:15;;;;;;;;;;;;;;;33.60;26.60;100282.31;5463599;32;35132;-84
2023/07/11 14:59:24;;;;;;;;;;;;;;;33.22;27.22;100271.22;5452321;32;35459;-74
2023/07/11 15:02:32;;;;;;;;;;;;;;;33.71;26.54;100261.75;5462964;32;35096;-82
2023/07/11 15:05:34;;;;;;;;;;;;;;;32.91;27.51;100260.13;5452117;32;36687;-84
2023/07/11 15:08:56;;;;;;;;;;;;;;;33.58;26.97;100253.63;5466383;32;35344;-83
2023/07/11 15:12:01;;;;;;;;;;;;;;;33.86;26.78;100256.03;5463275;32;36143;-83
2023/07/11 15:15:26;;;;;;;;;;;;;;;34.00;26.63;100259.56;5465174;32;35170;-82
2023/07/11 15:18:28;;;;;;;;;;;;;;;34.68;25.86;100251.69;5449582;32;34773;-73
2023/07/11 15:21:30;;;;;;;;;;;;;;;34.13;26.46;100243.16;5438344;32;35272;-82
2023/07/11 15:24:39;;;;;;;;;;;;;;;33.68;27.09;100243.94;5451305;32;34472;-81
2023/07/11 15:27:41;;;;;;;;;;;;;;;33.01;28.14;100258.66;5449515;32;35784;-80
2023/07/11 15:30:43;;;;;;;;;;;;;;;32.90;28.47;100256.56;5452485;32;35331;-81
2023/07/11 15:33:46;;;;;;;;;;;;;;;33.18;28.00;100256.38;5438103;32;34946;-74
2023/07/11 15:36:48;;;;;;;;;;;;;;;33.44;27.84;100246.53;5454413;32;34886;-73
2023/07/11 15:39:50;;;;;;;;;;;;;;;34.06;26.97;100255.97;5464592;32;34230;-74
2023/07/11 15:42:53;;;;;;;;;;;;;;;33.90;27.06;100247.22;5451250;32;35560;-73
2023/07/11 15:45:55;;;;;;;;;;;;;;;34.01;27.01;100253.09;5465014;32;34351;-83
2023/07/11 15:48:58;;;;;;;;;;;;;;;34.01;26.72;100247.63;5463032;32;34272;-74
2023/07/11 15:52:00;;;;;;;;;;;;;;;33.65;27.16;100243.53;5453044;32;35078;-82
2023/07/11 15:55:02;;;;;;;;;;;;;;;34.41;26.42;100246.38;5463675;32;35169;-82